Snyder, Arkansas
Current Conditions -  °F | °C
As of 3:53 PM on Tuesday 25 Nov 2014 (Local Time) from KLLQ Reporting Station
Clear Clear  
Wind Chill: 52°   Ceiling: Unl
Heat Index: 52°   Visibility: 10mi
Dew Point: 28°   Wind: 0mph
Humidity: 40%   Direction: NA
Pressure: 30.18"   Gusts: NA
Location:  33.3267°N, 91.5515°W
Report Text: KLLQ 252153Z AUTO 00000KT 10SM CLR 11/M02 A3018 RMK AO2 RAE01 SLP218 P0000 T01111022
Loading
Personal Weather Stations






























Interactive Weather Map New forecast layout! Learn more

10-Day Weather Forecast

Advertisements
Track Severe Weather on mobile